KPVU

Provo Municipal Airport

Provo, Utah, USA
METAR KPVU 130856Z AUTO 00000KT 10SM FEW045 M04/M07 A3043 RMK AO2 SLP329 T10391067 53011 FZRANO
Observed Flight Rules
Dec-13 @ 08:56 UTC (2 hours ago) Visual Flight Rules
Visibility Clouds
10 miles
  • Few at 4,500' AGL
Temperatures Readings
Current -4°C / 25°F
Dewpoint -7°C / 19°F
Humidity 80%
Altimeter 30.43" Hg
Pressure 1032.9 hPa
Elevation 1369
METAR KPVU 130856Z AUTO 00000KT 10SM FEW045 M04/M07 A3043 RMK AO2 SLP329 T10391067 53011 FZRANO
Observed Flight Rules
Dec-13 @ 08:56 UTC
(2 hours ago)
VFR
Clouds
  • Few at 4,500' AGL
Temperature Dewpoint
-4°C / 25°F -7°C / 19°F
Humidity Altimeter Pressure
80% 30.43" Hg 1032.9 hPa